sensor_id;sensor_type;location;lat;lon;timestamp;P1;durP1;ratioP1;P2;durP2;ratioP2
55728;SDS011;41633;39.720;2.910;2022-07-23T00:01:30;7.38;;;2.60;;
55728;SDS011;41633;39.720;2.910;2022-07-23T00:03:56;7.78;;;3.17;;
55728;SDS011;41633;39.720;2.910;2022-07-23T00:06:23;7.38;;;2.90;;
55728;SDS011;41633;39.720;2.910;2022-07-23T00:08:49;6.95;;;2.90;;
55728;SDS011;41633;39.720;2.910;2022-07-23T00:11:16;8.85;;;3.10;;
55728;SDS011;41633;39.720;2.910;2022-07-23T00:13:42;8.45;;;2.60;;
55728;SDS011;41633;39.720;2.910;2022-07-23T00:16:08;7.13;;;2.90;;
55728;SDS011;41633;39.720;2.910;2022-07-23T00:18:34;10.48;;;3.10;;
55728;SDS011;41633;39.720;2.910;2022-07-23T00:21:00;7.50;;;2.45;;
55728;SDS011;41633;39.720;2.910;2022-07-23T00:23:27;7.00;;;2.47;;
55728;SDS011;41633;39.720;2.910;2022-07-23T00:25:54;7.93;;;2.80;;
55728;SDS011;41633;39.720;2.910;2022-07-23T00:28:20;8.52;;;3.22;;
55728;SDS011;41633;39.720;2.910;2022-07-23T00:30:46;8.32;;;3.20;;
55728;SDS011;41633;39.720;2.910;2022-07-23T00:33:12;10.43;;;3.38;;
55728;SDS011;41633;39.720;2.910;2022-07-23T00:35:39;11.57;;;3.00;;
55728;SDS011;41633;39.720;2.910;2022-07-23T00:38:06;8.15;;;3.20;;
55728;SDS011;41633;39.720;2.910;2022-07-23T00:40:33;8.70;;;2.92;;
55728;SDS011;41633;39.720;2.910;2022-07-23T00:42:59;6.60;;;2.53;;
55728;SDS011;41633;39.720;2.910;2022-07-23T00:45:25;9.13;;;2.67;;
55728;SDS011;41633;39.720;2.910;2022-07-23T00:47:52;9.65;;;2.70;;
55728;SDS011;41633;39.720;2.910;2022-07-23T00:50:18;7.82;;;2.50;;
55728;SDS011;41633;39.720;2.910;2022-07-23T00:52:44;7.93;;;2.58;;
55728;SDS011;41633;39.720;2.910;2022-07-23T00:55:10;7.97;;;2.80;;
55728;SDS011;41633;39.720;2.910;2022-07-23T00:57:37;7.30;;;2.90;;
55728;SDS011;41633;39.720;2.910;2022-07-23T01:00:04;9.52;;;3.05;;
55728;SDS011;41633;39.720;2.910;2022-07-23T01:02:31;10.25;;;3.22;;
55728;SDS011;41633;39.720;2.910;2022-07-23T01:04:57;9.20;;;2.72;;
55728;SDS011;41633;39.720;2.910;2022-07-23T01:07:23;10.07;;;2.80;;
55728;SDS011;41633;39.720;2.910;2022-07-23T01:09:50;7.35;;;2.80;;
55728;SDS011;41633;39.720;2.910;2022-07-23T01:12:17;6.53;;;2.53;;
55728;SDS011;41633;39.720;2.910;2022-07-23T01:14:43;9.05;;;2.90;;
55728;SDS011;41633;39.720;2.910;2022-07-23T01:17:09;8.40;;;2.90;;
55728;SDS011;41633;39.720;2.910;2022-07-23T01:19:35;7.65;;;3.10;;
55728;SDS011;41633;39.720;2.910;2022-07-23T01:22:02;7.53;;;2.80;;
55728;SDS011;41633;39.720;2.910;2022-07-23T01:24:29;8.63;;;2.83;;
55728;SDS011;41633;39.720;2.910;2022-07-23T01:26:55;9.20;;;2.85;;
55728;SDS011;41633;39.720;2.910;2022-07-23T01:29:21;7.15;;;2.50;;
55728;SDS011;41633;39.720;2.910;2022-07-23T01:31:47;6.93;;;2.78;;
55728;SDS011;41633;39.720;2.910;2022-07-23T01:34:14;6.15;;;2.47;;
55728;SDS011;41633;39.720;2.910;2022-07-23T01:36:40;6.95;;;2.58;;
55728;SDS011;41633;39.720;2.910;2022-07-23T01:39:06;8.45;;;2.55;;
55728;SDS011;41633;39.720;2.910;2022-07-23T01:41:33;10.32;;;2.90;;
55728;SDS011;41633;39.720;2.910;2022-07-23T01:43:59;8.32;;;3.33;;
55728;SDS011;41633;39.720;2.910;2022-07-23T01:46:25;8.60;;;3.50;;
55728;SDS011;41633;39.720;2.910;2022-07-23T01:48:51;9.32;;;3.70;;
55728;SDS011;41633;39.720;2.910;2022-07-23T01:51:18;12.35;;;3.53;;
55728;SDS011;41633;39.720;2.910;2022-07-23T01:53:44;10.05;;;4.38;;
55728;SDS011;41633;39.720;2.910;2022-07-23T01:56:10;12.75;;;4.63;;
55728;SDS011;41633;39.720;2.910;2022-07-23T01:58:36;9.43;;;4.45;;
55728;SDS011;41633;39.720;2.910;2022-07-23T02:01:02;11.15;;;4.82;;
55728;SDS011;41633;39.720;2.910;2022-07-23T02:03:28;10.15;;;5.07;;
55728;SDS011;41633;39.720;2.910;2022-07-23T02:05:54;10.77;;;4.38;;
55728;SDS011;41633;39.720;2.910;2022-07-23T02:08:21;11.55;;;4.20;;
55728;SDS011;41633;39.720;2.910;2022-07-23T02:10:47;12.38;;;4.63;;
55728;SDS011;41633;39.720;2.910;2022-07-23T02:13:13;9.88;;;4.25;;
55728;SDS011;41633;39.720;2.910;2022-07-23T02:15:40;9.57;;;4.30;;
55728;SDS011;41633;39.720;2.910;2022-07-23T02:18:06;9.85;;;4.22;;
55728;SDS011;41633;39.720;2.910;2022-07-23T02:20:33;12.30;;;4.53;;
55728;SDS011;41633;39.720;2.910;2022-07-23T02:22:59;14.85;;;4.22;;
55728;SDS011;41633;39.720;2.910;2022-07-23T02:25:25;11.68;;;4.57;;
55728;SDS011;41633;39.720;2.910;2022-07-23T02:27:51;8.88;;;4.25;;
55728;SDS011;41633;39.720;2.910;2022-07-23T02:30:17;8.93;;;4.03;;
55728;SDS011;41633;39.720;2.910;2022-07-23T02:32:43;10.07;;;3.60;;
55728;SDS011;41633;39.720;2.910;2022-07-23T02:35:10;11.18;;;3.65;;
55728;SDS011;41633;39.720;2.910;2022-07-23T02:37:36;7.53;;;3.40;;
55728;SDS011;41633;39.720;2.910;2022-07-23T02:40:02;9.75;;;3.38;;
55728;SDS011;41633;39.720;2.910;2022-07-23T02:42:28;9.13;;;3.30;;
55728;SDS011;41633;39.720;2.910;2022-07-23T02:44:54;8.80;;;3.17;;
55728;SDS011;41633;39.720;2.910;2022-07-23T02:47:20;9.15;;;3.45;;
55728;SDS011;41633;39.720;2.910;2022-07-23T02:49:46;9.00;;;3.53;;
55728;SDS011;41633;39.720;2.910;2022-07-23T02:52:13;8.52;;;3.70;;
55728;SDS011;41633;39.720;2.910;2022-07-23T02:54:39;9.07;;;3.28;;
55728;SDS011;41633;39.720;2.910;2022-07-23T02:57:06;8.60;;;3.30;;
55728;SDS011;41633;39.720;2.910;2022-07-23T02:59:32;9.10;;;3.33;;
55728;SDS011;41633;39.720;2.910;2022-07-23T03:01:58;7.90;;;3.80;;
55728;SDS011;41633;39.720;2.910;2022-07-23T03:04:25;7.20;;;3.50;;
55728;SDS011;41633;39.720;2.910;2022-07-23T03:06:51;8.43;;;3.55;;
55728;SDS011;41633;39.720;2.910;2022-07-23T03:09:17;8.80;;;3.25;;
55728;SDS011;41633;39.720;2.910;2022-07-23T03:11:43;7.70;;;3.33;;
55728;SDS011;41633;39.720;2.910;2022-07-23T03:14:09;7.40;;;3.22;;
55728;SDS011;41633;39.720;2.910;2022-07-23T03:16:38;9.63;;;3.42;;
55728;SDS011;41633;39.720;2.910;2022-07-23T03:19:04;6.50;;;2.83;;
55728;SDS011;41633;39.720;2.910;2022-07-23T03:21:30;9.20;;;3.22;;
55728;SDS011;41633;39.720;2.910;2022-07-23T03:23:56;8.13;;;3.08;;
55728;SDS011;41633;39.720;2.910;2022-07-23T03:26:22;8.20;;;3.17;;
55728;SDS011;41633;39.720;2.910;2022-07-23T03:28:50;8.38;;;3.50;;
55728;SDS011;41633;39.720;2.910;2022-07-23T03:31:17;11.55;;;3.65;;
55728;SDS011;41633;39.720;2.910;2022-07-23T03:33:43;7.25;;;3.28;;
55728;SDS011;41633;39.720;2.910;2022-07-23T03:36:09;8.80;;;3.60;;
55728;SDS011;41633;39.720;2.910;2022-07-23T03:38:35;9.00;;;3.50;;
55728;SDS011;41633;39.720;2.910;2022-07-23T03:41:02;8.02;;;3.15;;
55728;SDS011;41633;39.720;2.910;2022-07-23T03:43:28;6.68;;;2.90;;
55728;SDS011;41633;39.720;2.910;2022-07-23T03:45:54;7.25;;;2.95;;
55728;SDS011;41633;39.720;2.910;2022-07-23T03:48:20;9.32;;;2.80;;
55728;SDS011;41633;39.720;2.910;2022-07-23T03:50:46;10.63;;;2.95;;
55728;SDS011;41633;39.720;2.910;2022-07-23T03:53:13;6.97;;;3.00;;
55728;SDS011;41633;39.720;2.910;2022-07-23T03:55:39;11.95;;;3.22;;
55728;SDS011;41633;39.720;2.910;2022-07-23T03:58:06;7.80;;;2.95;;
55728;SDS011;41633;39.720;2.910;2022-07-23T04:00:32;9.05;;;3.45;;
55728;SDS011;41633;39.720;2.910;2022-07-23T04:02:58;7.82;;;3.47;;
55728;SDS011;41633;39.720;2.910;2022-07-23T04:05:24;8.73;;;3.67;;
55728;SDS011;41633;39.720;2.910;2022-07-23T04:07:50;7.28;;;3.30;;
55728;SDS011;41633;39.720;2.910;2022-07-23T04:10:17;7.93;;;3.35;;
55728;SDS011;41633;39.720;2.910;2022-07-23T04:12:43;8.02;;;3.33;;
55728;SDS011;41633;39.720;2.910;2022-07-23T04:15:09;8.95;;;3.63;;
55728;SDS011;41633;39.720;2.910;2022-07-23T04:17:35;10.30;;;3.78;;
55728;SDS011;41633;39.720;2.910;2022-07-23T04:20:02;9.43;;;3.45;;
55728;SDS011;41633;39.720;2.910;2022-07-23T04:22:28;9.07;;;3.60;;
55728;SDS011;41633;39.720;2.910;2022-07-23T04:24:54;11.80;;;3.85;;
55728;SDS011;41633;39.720;2.910;2022-07-23T04:27:20;7.88;;;3.47;;
55728;SDS011;41633;39.720;2.910;2022-07-23T04:29:47;10.10;;;3.40;;
55728;SDS011;41633;39.720;2.910;2022-07-23T04:32:13;10.80;;;3.72;;
55728;SDS011;41633;39.720;2.910;2022-07-23T04:34:39;8.38;;;3.53;;
55728;SDS011;41633;39.720;2.910;2022-07-23T04:37:06;9.60;;;3.50;;
55728;SDS011;41633;39.720;2.910;2022-07-23T04:39:32;9.45;;;3.70;;
55728;SDS011;41633;39.720;2.910;2022-07-23T04:41:58;9.30;;;3.42;;
55728;SDS011;41633;39.720;2.910;2022-07-23T04:44:24;7.32;;;3.30;;
55728;SDS011;41633;39.720;2.910;2022-07-23T04:46:50;8.65;;;3.30;;
55728;SDS011;41633;39.720;2.910;2022-07-23T04:49:16;9.50;;;3.65;;
55728;SDS011;41633;39.720;2.910;2022-07-23T04:51:42;8.95;;;3.58;;
55728;SDS011;41633;39.720;2.910;2022-07-23T04:54:08;9.82;;;3.08;;
55728;SDS011;41633;39.720;2.910;2022-07-23T04:56:35;11.93;;;3.60;;
55728;SDS011;41633;39.720;2.910;2022-07-23T04:59:01;9.57;;;3.22;;
55728;SDS011;41633;39.720;2.910;2022-07-23T05:01:27;10.40;;;3.40;;
55728;SDS011;41633;39.720;2.910;2022-07-23T05:03:53;10.40;;;3.70;;
55728;SDS011;41633;39.720;2.910;2022-07-23T05:06:19;9.13;;;3.60;;
55728;SDS011;41633;39.720;2.910;2022-07-23T05:08:45;9.02;;;3.40;;
55728;SDS011;41633;39.720;2.910;2022-07-23T05:11:11;9.77;;;3.80;;
55728;SDS011;41633;39.720;2.910;2022-07-23T05:13:37;9.25;;;3.85;;
55728;SDS011;41633;39.720;2.910;2022-07-23T05:16:04;9.55;;;3.45;;
55728;SDS011;41633;39.720;2.910;2022-07-23T05:18:30;11.65;;;3.22;;
55728;SDS011;41633;39.720;2.910;2022-07-23T05:20:56;10.45;;;3.47;;
55728;SDS011;41633;39.720;2.910;2022-07-23T05:23:22;9.32;;;3.20;;
55728;SDS011;41633;39.720;2.910;2022-07-23T05:25:48;9.52;;;3.28;;
55728;SDS011;41633;39.720;2.910;2022-07-23T05:28:15;10.00;;;3.17;;
55728;SDS011;41633;39.720;2.910;2022-07-23T05:30:41;6.40;;;2.60;;
55728;SDS011;41633;39.720;2.910;2022-07-23T05:33:07;14.65;;;3.45;;
55728;SDS011;41633;39.720;2.910;2022-07-23T05:35:33;9.77;;;2.78;;
55728;SDS011;41633;39.720;2.910;2022-07-23T05:37:59;13.18;;;3.22;;
55728;SDS011;41633;39.720;2.910;2022-07-23T05:40:25;9.95;;;2.85;;
55728;SDS011;41633;39.720;2.910;2022-07-23T05:42:52;12.57;;;3.35;;
55728;SDS011;41633;39.720;2.910;2022-07-23T05:45:18;13.55;;;3.08;;
55728;SDS011;41633;39.720;2.910;2022-07-23T05:47:47;10.82;;;2.80;;
55728;SDS011;41633;39.720;2.910;2022-07-23T05:50:14;14.20;;;2.92;;
55728;SDS011;41633;39.720;2.910;2022-07-23T05:52:40;12.52;;;3.15;;
55728;SDS011;41633;39.720;2.910;2022-07-23T05:55:07;15.07;;;3.00;;
55728;SDS011;41633;39.720;2.910;2022-07-23T05:57:33;9.57;;;3.10;;
55728;SDS011;41633;39.720;2.910;2022-07-23T05:59:59;15.10;;;3.72;;
55728;SDS011;41633;39.720;2.910;2022-07-23T06:02:25;15.38;;;3.10;;
55728;SDS011;41633;39.720;2.910;2022-07-23T06:04:51;10.98;;;3.28;;
55728;SDS011;41633;39.720;2.910;2022-07-23T06:07:17;10.55;;;2.97;;
55728;SDS011;41633;39.720;2.910;2022-07-23T06:09:50;14.75;;;3.40;;
55728;SDS011;41633;39.720;2.910;2022-07-23T06:12:16;12.82;;;3.20;;
55728;SDS011;41633;39.720;2.910;2022-07-23T06:14:43;14.18;;;2.70;;
55728;SDS011;41633;39.720;2.910;2022-07-23T06:17:09;10.93;;;2.97;;
55728;SDS011;41633;39.720;2.910;2022-07-23T06:19:36;12.48;;;3.08;;
55728;SDS011;41633;39.720;2.910;2022-07-23T06:22:02;8.63;;;2.78;;
55728;SDS011;41633;39.720;2.910;2022-07-23T06:24:28;8.43;;;2.90;;
55728;SDS011;41633;39.720;2.910;2022-07-23T06:26:54;10.30;;;2.75;;
55728;SDS011;41633;39.720;2.910;2022-07-23T06:29:22;10.20;;;3.00;;
55728;SDS011;41633;39.720;2.910;2022-07-23T06:31:49;11.23;;;3.17;;
55728;SDS011;41633;39.720;2.910;2022-07-23T06:34:15;11.60;;;3.78;;
55728;SDS011;41633;39.720;2.910;2022-07-23T06:36:41;12.80;;;3.95;;
55728;SDS011;41633;39.720;2.910;2022-07-23T06:39:07;12.80;;;6.13;;
55728;SDS011;41633;39.720;2.910;2022-07-23T06:41:33;17.92;;;7.72;;
55728;SDS011;41633;39.720;2.910;2022-07-23T06:43:59;11.77;;;4.60;;
55728;SDS011;41633;39.720;2.910;2022-07-23T06:46:25;11.20;;;4.10;;
55728;SDS011;41633;39.720;2.910;2022-07-23T06:48:51;14.88;;;5.43;;
55728;SDS011;41633;39.720;2.910;2022-07-23T06:51:17;14.00;;;5.03;;
55728;SDS011;41633;39.720;2.910;2022-07-23T06:53:44;12.95;;;4.45;;
55728;SDS011;41633;39.720;2.910;2022-07-23T06:56:10;15.32;;;5.85;;
55728;SDS011;41633;39.720;2.910;2022-07-23T06:58:36;13.60;;;4.50;;
55728;SDS011;41633;39.720;2.910;2022-07-23T07:01:02;13.98;;;6.40;;
55728;SDS011;41633;39.720;2.910;2022-07-23T07:03:28;12.25;;;4.70;;
55728;SDS011;41633;39.720;2.910;2022-07-23T07:05:54;10.73;;;4.25;;
55728;SDS011;41633;39.720;2.910;2022-07-23T07:08:22;11.65;;;4.15;;
55728;SDS011;41633;39.720;2.910;2022-07-23T07:10:48;10.77;;;3.53;;
55728;SDS011;41633;39.720;2.910;2022-07-23T07:13:14;12.57;;;3.97;;
55728;SDS011;41633;39.720;2.910;2022-07-23T07:15:41;10.93;;;3.65;;
55728;SDS011;41633;39.720;2.910;2022-07-23T07:18:07;11.35;;;3.53;;
55728;SDS011;41633;39.720;2.910;2022-07-23T07:20:33;9.15;;;3.78;;
55728;SDS011;41633;39.720;2.910;2022-07-23T07:22:59;11.63;;;4.88;;
55728;SDS011;41633;39.720;2.910;2022-07-23T07:25:25;13.48;;;4.90;;
55728;SDS011;41633;39.720;2.910;2022-07-23T07:27:51;9.70;;;4.50;;
55728;SDS011;41633;39.720;2.910;2022-07-23T07:30:18;8.30;;;3.63;;
55728;SDS011;41633;39.720;2.910;2022-07-23T07:32:44;10.07;;;3.97;;
55728;SDS011;41633;39.720;2.910;2022-07-23T07:35:10;9.93;;;3.83;;
55728;SDS011;41633;39.720;2.910;2022-07-23T07:37:36;10.55;;;3.55;;
55728;SDS011;41633;39.720;2.910;2022-07-23T07:40:02;8.35;;;3.28;;
55728;SDS011;41633;39.720;2.910;2022-07-23T07:42:29;8.68;;;3.70;;
55728;SDS011;41633;39.720;2.910;2022-07-23T07:44:55;8.35;;;3.65;;
55728;SDS011;41633;39.720;2.910;2022-07-23T07:47:21;10.88;;;3.60;;
55728;SDS011;41633;39.720;2.910;2022-07-23T07:49:47;10.07;;;3.08;;
55728;SDS011;41633;39.720;2.910;2022-07-23T07:52:13;11.20;;;4.35;;
55728;SDS011;41633;39.720;2.910;2022-07-23T07:54:39;12.23;;;3.80;;
55728;SDS011;41633;39.720;2.910;2022-07-23T07:57:05;9.73;;;3.70;;
55728;SDS011;41633;39.720;2.910;2022-07-23T07:59:32;10.02;;;3.38;;
55728;SDS011;41633;39.720;2.910;2022-07-23T08:01:58;8.23;;;3.80;;
55728;SDS011;41633;39.720;2.910;2022-07-23T08:04:24;11.10;;;3.67;;
55728;SDS011;41633;39.720;2.910;2022-07-23T08:06:50;9.88;;;3.42;;
55728;SDS011;41633;39.720;2.910;2022-07-23T08:09:16;11.57;;;3.40;;
55728;SDS011;41633;39.720;2.910;2022-07-23T08:11:42;8.23;;;3.38;;
55728;SDS011;41633;39.720;2.910;2022-07-23T08:14:08;8.45;;;3.22;;
55728;SDS011;41633;39.720;2.910;2022-07-23T08:16:36;9.10;;;3.60;;
55728;SDS011;41633;39.720;2.910;2022-07-23T08:19:02;9.93;;;3.28;;
55728;SDS011;41633;39.720;2.910;2022-07-23T08:21:28;7.72;;;3.25;;
55728;SDS011;41633;39.720;2.910;2022-07-23T08:23:54;8.85;;;3.28;;
55728;SDS011;41633;39.720;2.910;2022-07-23T08:26:20;7.63;;;3.28;;
55728;SDS011;41633;39.720;2.910;2022-07-23T08:28:47;8.10;;;3.00;;
55728;SDS011;41633;39.720;2.910;2022-07-23T08:31:13;8.43;;;2.70;;
55728;SDS011;41633;39.720;2.910;2022-07-23T08:33:41;7.57;;;2.88;;
55728;SDS011;41633;39.720;2.910;2022-07-23T08:36:07;7.10;;;3.03;;
55728;SDS011;41633;39.720;2.910;2022-07-23T08:38:34;8.13;;;2.92;;
55728;SDS011;41633;39.720;2.910;2022-07-23T08:41:01;7.05;;;2.40;;
55728;SDS011;41633;39.720;2.910;2022-07-23T08:43:31;7.40;;;2.60;;
55728;SDS011;41633;39.720;2.910;2022-07-23T08:45:59;8.40;;;2.70;;
55728;SDS011;41633;39.720;2.910;2022-07-23T08:48:27;7.38;;;2.83;;
55728;SDS011;41633;39.720;2.910;2022-07-23T08:50:55;7.13;;;2.75;;
55728;SDS011;41633;39.720;2.910;2022-07-23T08:53:22;7.13;;;2.72;;
55728;SDS011;41633;39.720;2.910;2022-07-23T08:55:52;10.32;;;3.10;;
55728;SDS011;41633;39.720;2.910;2022-07-23T08:58:19;9.45;;;3.05;;
55728;SDS011;41633;39.720;2.910;2022-07-23T09:00:45;8.55;;;3.05;;
55728;SDS011;41633;39.720;2.910;2022-07-23T09:03:25;6.22;;;2.55;;
55728;SDS011;41633;39.720;2.910;2022-07-23T09:05:51;8.35;;;2.65;;
55728;SDS011;41633;39.720;2.910;2022-07-23T09:08:21;7.97;;;2.60;;
55728;SDS011;41633;39.720;2.910;2022-07-23T09:10:55;7.85;;;2.58;;
55728;SDS011;41633;39.720;2.910;2022-07-23T09:14:04;6.43;;;2.50;;
55728;SDS011;41633;39.720;2.910;2022-07-23T09:16:14;5.40;;;2.38;;
55728;SDS011;41633;39.720;2.910;2022-07-23T09:18:41;9.48;;;2.90;;
55728;SDS011;41633;39.720;2.910;2022-07-23T09:23:42;7.15;;;2.33;;
55728;SDS011;41633;39.720;2.910;2022-07-23T09:26:19;5.57;;;2.15;;
55728;SDS011;41633;39.720;2.910;2022-07-23T09:28:53;7.50;;;2.50;;
55728;SDS011;41633;39.720;2.910;2022-07-23T09:31:19;6.78;;;2.30;;
55728;SDS011;41633;39.720;2.910;2022-07-23T09:33:46;9.45;;;2.92;;
55728;SDS011;41633;39.720;2.910;2022-07-23T09:36:12;6.53;;;2.38;;
55728;SDS011;41633;39.720;2.910;2022-07-23T09:38:59;7.13;;;2.47;;
55728;SDS011;41633;39.720;2.910;2022-07-23T09:41:24;7.25;;;2.60;;
55728;SDS011;41633;39.720;2.910;2022-07-23T09:43:59;6.47;;;2.63;;
55728;SDS011;41633;39.720;2.910;2022-07-23T09:46:32;6.18;;;2.47;;
55728;SDS011;41633;39.720;2.910;2022-07-23T09:48:58;8.98;;;2.60;;
55728;SDS011;41633;39.720;2.910;2022-07-23T09:51:24;9.07;;;2.67;;
55728;SDS011;41633;39.720;2.910;2022-07-23T09:53:57;6.45;;;2.53;;
55728;SDS011;41633;39.720;2.910;2022-07-23T09:56:23;7.97;;;2.53;;
55728;SDS011;41633;39.720;2.910;2022-07-23T09:58:49;7.22;;;2.55;;
55728;SDS011;41633;39.720;2.910;2022-07-23T10:01:37;9.95;;;2.65;;
55728;SDS011;41633;39.720;2.910;2022-07-23T10:04:03;8.55;;;2.53;;
55728;SDS011;41633;39.720;2.910;2022-07-23T10:06:30;5.75;;;2.25;;
55728;SDS011;41633;39.720;2.910;2022-07-23T10:08:57;7.47;;;2.80;;
55728;SDS011;41633;39.720;2.910;2022-07-23T10:11:24;7.97;;;2.25;;
55728;SDS011;41633;39.720;2.910;2022-07-23T10:13:51;6.28;;;2.53;;
55728;SDS011;41633;39.720;2.910;2022-07-23T10:16:19;7.20;;;2.65;;
55728;SDS011;41633;39.720;2.910;2022-07-23T10:18:46;7.13;;;2.60;;
55728;SDS011;41633;39.720;2.910;2022-07-23T10:21:12;5.50;;;2.20;;
55728;SDS011;41633;39.720;2.910;2022-07-23T10:23:45;8.40;;;3.00;;
55728;SDS011;41633;39.720;2.910;2022-07-23T10:26:19;8.43;;;2.50;;
55728;SDS011;41633;39.720;2.910;2022-07-23T10:34:12;7.53;;;2.50;;
55728;SDS011;41633;39.720;2.910;2022-07-23T10:36:51;7.70;;;2.53;;
55728;SDS011;41633;39.720;2.910;2022-07-23T10:41:51;5.18;;;2.10;;
55728;SDS011;41633;39.720;2.910;2022-07-23T10:44:20;5.53;;;2.30;;
55728;SDS011;41633;39.720;2.910;2022-07-23T10:47:04;6.32;;;2.30;;
55728;SDS011;41633;39.720;2.910;2022-07-23T10:49:45;8.13;;;2.70;;
55728;SDS011;41633;39.720;2.910;2022-07-23T10:54:41;6.43;;;2.25;;
55728;SDS011;41633;39.720;2.910;2022-07-23T10:57:07;9.02;;;2.60;;
55728;SDS011;41633;39.720;2.910;2022-07-23T11:02:22;6.05;;;2.13;;
55728;SDS011;41633;39.720;2.910;2022-07-23T11:04:50;5.93;;;1.92;;
55728;SDS011;41633;39.720;2.910;2022-07-23T11:07:16;7.82;;;2.25;;
55728;SDS011;41633;39.720;2.910;2022-07-23T11:09:43;7.88;;;2.30;;
55728;SDS011;41633;39.720;2.910;2022-07-23T11:17:25;7.82;;;2.40;;
55728;SDS011;41633;39.720;2.910;2022-07-23T11:22:51;9.50;;;3.13;;
55728;SDS011;41633;39.720;2.910;2022-07-23T11:27:47;8.23;;;2.60;;
55728;SDS011;41633;39.720;2.910;2022-07-23T11:33:37;6.35;;;2.40;;
55728;SDS011;41633;39.720;2.910;2022-07-23T11:35:39;6.28;;;2.20;;
55728;SDS011;41633;39.720;2.910;2022-07-23T11:38:07;7.90;;;2.47;;
55728;SDS011;41633;39.720;2.910;2022-07-23T11:40:33;7.90;;;2.40;;
55728;SDS011;41633;39.720;2.910;2022-07-23T11:43:04;5.63;;;2.17;;
55728;SDS011;41633;39.720;2.910;2022-07-23T11:45:32;9.13;;;2.47;;
55728;SDS011;41633;39.720;2.910;2022-07-23T11:47:58;7.90;;;2.13;;
55728;SDS011;41633;39.720;2.910;2022-07-23T11:50:25;5.93;;;2.17;;
55728;SDS011;41633;39.720;2.910;2022-07-23T11:52:52;6.57;;;2.03;;
55728;SDS011;41633;39.720;2.910;2022-07-23T11:55:18;6.32;;;2.28;;
55728;SDS011;41633;39.720;2.910;2022-07-23T11:57:44;8.10;;;2.28;;
55728;SDS011;41633;39.720;2.910;2022-07-23T12:02:38;6.40;;;2.30;;
55728;SDS011;41633;39.720;2.910;2022-07-23T12:05:04;7.40;;;2.28;;
55728;SDS011;41633;39.720;2.910;2022-07-23T12:07:38;6.18;;;2.25;;
55728;SDS011;41633;39.720;2.910;2022-07-23T12:12:35;7.93;;;2.15;;
55728;SDS011;41633;39.720;2.910;2022-07-23T12:15:02;6.60;;;2.20;;
55728;SDS011;41633;39.720;2.910;2022-07-23T12:17:29;9.20;;;2.20;;
55728;SDS011;41633;39.720;2.910;2022-07-23T12:19:57;6.25;;;2.40;;
55728;SDS011;41633;39.720;2.910;2022-07-23T12:22:24;6.15;;;2.28;;
55728;SDS011;41633;39.720;2.910;2022-07-23T12:24:54;9.05;;;2.42;;
55728;SDS011;41633;39.720;2.910;2022-07-23T12:27:20;7.13;;;2.08;;
55728;SDS011;41633;39.720;2.910;2022-07-23T12:29:47;7.53;;;2.30;;
55728;SDS011;41633;39.720;2.910;2022-07-23T12:32:20;6.03;;;2.20;;
55728;SDS011;41633;39.720;2.910;2022-07-23T12:35:05;7.05;;;2.40;;
55728;SDS011;41633;39.720;2.910;2022-07-23T12:37:33;5.47;;;2.28;;
55728;SDS011;41633;39.720;2.910;2022-07-23T12:42:45;7.97;;;2.20;;
55728;SDS011;41633;39.720;2.910;2022-07-23T12:45:11;6.43;;;1.98;;
55728;SDS011;41633;39.720;2.910;2022-07-23T12:47:55;7.55;;;2.17;;
55728;SDS011;41633;39.720;2.910;2022-07-23T12:53:05;5.30;;;2.05;;
55728;SDS011;41633;39.720;2.910;2022-07-23T12:55:31;8.07;;;2.40;;
55728;SDS011;41633;39.720;2.910;2022-07-23T12:58:04;8.07;;;2.40;;
55728;SDS011;41633;39.720;2.910;2022-07-23T13:00:31;7.45;;;2.20;;
55728;SDS011;41633;39.720;2.910;2022-07-23T13:02:57;7.25;;;2.30;;
55728;SDS011;41633;39.720;2.910;2022-07-23T13:05:23;6.88;;;2.00;;
55728;SDS011;41633;39.720;2.910;2022-07-23T13:07:49;6.45;;;2.00;;
55728;SDS011;41633;39.720;2.910;2022-07-23T13:10:15;7.32;;;2.03;;
55728;SDS011;41633;39.720;2.910;2022-07-23T13:12:41;6.22;;;2.10;;
55728;SDS011;41633;39.720;2.910;2022-07-23T13:15:07;8.60;;;2.47;;
55728;SDS011;41633;39.720;2.910;2022-07-23T13:17:34;8.18;;;2.20;;
55728;SDS011;41633;39.720;2.910;2022-07-23T13:20:00;6.43;;;2.15;;
55728;SDS011;41633;39.720;2.910;2022-07-23T13:22:27;10.07;;;2.22;;
55728;SDS011;41633;39.720;2.910;2022-07-23T13:24:53;5.13;;;1.95;;
55728;SDS011;41633;39.720;2.910;2022-07-23T13:27:19;6.75;;;2.20;;
55728;SDS011;41633;39.720;2.910;2022-07-23T13:29:45;6.95;;;2.03;;
55728;SDS011;41633;39.720;2.910;2022-07-23T13:32:12;6.25;;;1.98;;
55728;SDS011;41633;39.720;2.910;2022-07-23T13:34:38;6.18;;;2.10;;
55728;SDS011;41633;39.720;2.910;2022-07-23T13:37:04;6.20;;;1.73;;
55728;SDS011;41633;39.720;2.910;2022-07-23T13:39:30;7.22;;;2.10;;
55728;SDS011;41633;39.720;2.910;2022-07-23T13:41:56;7.05;;;2.25;;
55728;SDS011;41633;39.720;2.910;2022-07-23T13:44:22;6.68;;;1.85;;
55728;SDS011;41633;39.720;2.910;2022-07-23T13:46:49;6.38;;;1.90;;
55728;SDS011;41633;39.720;2.910;2022-07-23T13:49:15;6.72;;;1.60;;
55728;SDS011;41633;39.720;2.910;2022-07-23T13:51:41;5.18;;;1.67;;
55728;SDS011;41633;39.720;2.910;2022-07-23T13:54:07;6.50;;;1.73;;
55728;SDS011;41633;39.720;2.910;2022-07-23T13:56:33;8.95;;;1.85;;
55728;SDS011;41633;39.720;2.910;2022-07-23T13:59:01;6.60;;;2.40;;
55728;SDS011;41633;39.720;2.910;2022-07-23T14:01:27;6.60;;;1.98;;
55728;SDS011;41633;39.720;2.910;2022-07-23T14:03:53;5.10;;;1.60;;
55728;SDS011;41633;39.720;2.910;2022-07-23T14:06:19;6.15;;;1.77;;
55728;SDS011;41633;39.720;2.910;2022-07-23T14:08:45;6.47;;;2.10;;
55728;SDS011;41633;39.720;2.910;2022-07-23T14:11:12;5.75;;;1.83;;
55728;SDS011;41633;39.720;2.910;2022-07-23T14:13:38;5.60;;;1.88;;
55728;SDS011;41633;39.720;2.910;2022-07-23T14:16:04;5.90;;;1.88;;
55728;SDS011;41633;39.720;2.910;2022-07-23T14:18:31;6.95;;;1.73;;
55728;SDS011;41633;39.720;2.910;2022-07-23T14:20:57;7.32;;;1.90;;
55728;SDS011;41633;39.720;2.910;2022-07-23T14:23:23;6.05;;;1.92;;
55728;SDS011;41633;39.720;2.910;2022-07-23T14:25:49;5.32;;;1.80;;
55728;SDS011;41633;39.720;2.910;2022-07-23T14:28:15;5.55;;;1.92;;
55728;SDS011;41633;39.720;2.910;2022-07-23T14:30:41;5.93;;;2.05;;
55728;SDS011;41633;39.720;2.910;2022-07-23T14:33:08;7.70;;;1.90;;
55728;SDS011;41633;39.720;2.910;2022-07-23T14:35:34;6.82;;;1.95;;
55728;SDS011;41633;39.720;2.910;2022-07-23T14:38:00;6.72;;;1.85;;
55728;SDS011;41633;39.720;2.910;2022-07-23T14:40:27;7.40;;;1.80;;
55728;SDS011;41633;39.720;2.910;2022-07-23T14:42:53;6.32;;;1.98;;
55728;SDS011;41633;39.720;2.910;2022-07-23T14:45:19;5.95;;;1.80;;
55728;SDS011;41633;39.720;2.910;2022-07-23T14:47:46;6.93;;;1.80;;
55728;SDS011;41633;39.720;2.910;2022-07-23T14:50:13;6.75;;;1.90;;
55728;SDS011;41633;39.720;2.910;2022-07-23T14:52:39;7.28;;;1.98;;
55728;SDS011;41633;39.720;2.910;2022-07-23T14:55:05;5.57;;;1.90;;
55728;SDS011;41633;39.720;2.910;2022-07-23T14:57:31;6.25;;;2.00;;
55728;SDS011;41633;39.720;2.910;2022-07-23T14:59:57;6.10;;;1.80;;
55728;SDS011;41633;39.720;2.910;2022-07-23T15:02:23;5.93;;;2.00;;
55728;SDS011;41633;39.720;2.910;2022-07-23T15:04:50;6.53;;;2.03;;
55728;SDS011;41633;39.720;2.910;2022-07-23T15:07:16;6.15;;;1.90;;
55728;SDS011;41633;39.720;2.910;2022-07-23T15:09:42;8.43;;;2.30;;
55728;SDS011;41633;39.720;2.910;2022-07-23T15:12:08;7.05;;;2.00;;
55728;SDS011;41633;39.720;2.910;2022-07-23T15:14:34;6.00;;;2.00;;
55728;SDS011;41633;39.720;2.910;2022-07-23T15:17:00;9.27;;;2.13;;
55728;SDS011;41633;39.720;2.910;2022-07-23T15:19:27;8.10;;;2.03;;
55728;SDS011;41633;39.720;2.910;2022-07-23T15:21:53;6.93;;;2.00;;
55728;SDS011;41633;39.720;2.910;2022-07-23T15:24:19;7.45;;;1.90;;